Strona główna
METAR-TAF:

METAR-TAF

Lotnisko :

Palma de Mallorca, Hiszpania

Port lotniczy Palma de Mallorca

Szerokość geograficzna: 39-33N, Długość geograficzna: 002-44E, wysokość: 4 m

Aktualna obserwacja pogody

Raport powstał 26 minut temu, godzina 17:30 UTC
Cisza
Temperatura 13°C
Wilgotność 62%
Ciśnienie 1023 hPa
Widzialność 10 km lub więcej
Mało chmury na wysokości 3000 ft

METAR: LEPA 171730Z 00000KT 9999 FEW030 13/06 Q1023 NOSIG

czas: 18:56 (17:56 UTC)

Prognoza

Raport powstał 56 minut temu, godzina 17:00 UTC
Prognoza ważna od 17 godzina 18 UTC do 18 godzina 18 UTC
Wiatr 4 kt z kierunków zmiennych
Widzialność 10 km lub więcej
Rozproszone chmury na wysokości 3000 ft
Prawdopodobieństwo 30% :
Przejściowo
od 18 godzina 00 UTC do 18 godzina 10 UTC
Przerywane chmury na wysokości 2000 ft
deszcz
Przejściowo
od 18 godzina 12 UTC do 18 godzina 16 UTC
Wiatr 8 kt od południowy zachód

TAF: LEPA 171700Z 1718/1818 VRB04KT 9999 SCT030 TX15/1812Z TN06/1807Z PROB30 TEMPO 1800/1810 RA BKN020 TEMPO 1812/1816 22008KT

Obserwacja i prognoza pogody dla ponad 4000 lotnisk (raport METAR i TAF).

Dostępne stacje oznaczono żółtymi i czerwonymi punktami na mapie.

Najedź kursorem aby zobaczyć nazwę stacji.

Kliknij aby zobaczyć obserwacje i prognozy pogody.

Aby zmienić mapę: kliknij na zielony przycisk z czarnym krzyżykiem, aby powiększyć; na zielony przycisk z myślnikiem, aby pomniejszyć; na zielone strzałki, aby przejść do map sąsiednich.


METAR-TAF: